Time;durP1;ratioP1;P1;durP2;ratioP2;P2;SDS_P1;SDS_P2;PMS_P1;PMS_P2;Temp;Humidity;BMP_temperature;BMP_pressure;BME280_temperature;BME280_humidity;BME280_pressure;Samples;Min_cycle;Max_cycle;Signal;HPM_P1;HPM_P2
2021/03/18 00:02:37;;;;;;;14.20;7.60;;;;;;;4.60;60.34;99150.91;252078;1145;115287;-70
2021/03/18 00:07:40;;;;;;;12.90;7.60;;;;;;;4.57;60.73;99153.64;248846;1153;114826;-69
2021/03/18 00:12:42;;;;;;;11.10;7.35;;;;;;;4.54;60.15;99154.61;251935;1153;115195;-70
2021/03/18 00:17:45;;;;;;;13.30;7.58;;;;;;;4.51;60.13;99154.71;252064;1146;114656;-75
2021/03/18 00:22:47;;;;;;;14.15;8.30;;;;;;;4.49;60.68;99157.41;249487;1146;115370;-76
2021/03/18 00:27:50;;;;;;;13.30;7.73;;;;;;;4.48;60.27;99152.18;249499;1146;114811;-77
2021/03/18 00:32:53;;;;;;;15.45;7.93;;;;;;;4.45;60.23;99163.72;251760;1145;114615;-75
2021/03/18 00:37:57;;;;;;;14.13;8.03;;;;;;;4.44;60.28;99156.70;251956;1146;114630;-75
2021/03/18 00:43:03;;;;;;;16.03;8.10;;;;;;;4.42;60.27;99152.42;251496;1153;115324;-69
2021/03/18 00:48:08;;;;;;;10.93;6.60;;;;;;;4.41;60.58;99163.86;250845;1146;114831;-76
2021/03/18 00:53:14;;;;;;;12.27;6.83;;;;;;;4.39;60.14;99148.11;251193;1146;114574;-74
2021/03/18 00:58:17;;;;;;;14.50;6.90;;;;;;;4.39;60.22;99149.89;252082;1146;114690;-77
2021/03/18 01:03:20;;;;;;;13.30;7.15;;;;;;;4.39;60.38;99149.89;252062;1145;114841;-70
2021/03/18 01:08:27;;;;;;;12.95;7.40;;;;;;;4.39;60.50;99147.26;252056;1145;115985;-77
2021/03/18 01:13:29;;;;;;;10.15;6.15;;;;;;;4.40;60.15;99143.70;252077;1153;114991;-71
2021/03/18 01:18:40;;;;;;;11.07;6.67;;;;;;;4.37;60.25;99134.13;251978;1146;114246;-71
2021/03/18 01:23:44;;;;;;;10.93;6.00;;;;;;;4.38;60.51;99141.13;251971;1145;114258;-70
2021/03/18 01:28:46;;;;;;;9.97;6.50;;;;;;;4.36;60.26;99136.83;251971;1146;115001;-77
2021/03/18 01:33:48;;;;;;;12.63;6.97;;;;;;;4.36;60.38;99137.68;250253;1145;115062;-70
2021/03/18 01:38:51;;;;;;;12.55;6.80;;;;;;;4.36;60.43;99147.36;252050;1145;114434;-76
2021/03/18 01:43:53;;;;;;;10.25;6.23;;;;;;;4.37;60.02;99149.93;250293;1153;114696;-78
2021/03/18 01:48:55;;;;;;;11.77;6.60;;;;;;;4.37;60.47;99149.08;249865;1146;114378;-78
2021/03/18 01:53:58;;;;;;;10.43;6.65;;;;;;;4.35;60.50;99151.78;251205;1153;114628;-78
2021/03/18 01:59:00;;;;;;;11.87;6.43;;;;;;;4.34;60.53;99157.94;250288;1145;114725;-74
2021/03/18 02:04:03;;;;;;;11.35;6.75;;;;;;;4.33;60.74;99155.38;249135;1146;114815;-77
2021/03/18 02:09:06;;;;;;;12.35;7.20;;;;;;;4.32;60.72;99162.42;251761;1146;114503;-79
2021/03/18 02:14:08;;;;;;;11.73;7.47;;;;;;;4.30;60.56;99158.11;247806;1146;114974;-74
2021/03/18 02:19:35;;;;;;;13.70;8.15;;;;;;;4.29;60.56;99149.35;251979;1146;114335;-74
2021/03/18 02:24:55;;;;;;;12.80;8.15;;;;;;;4.31;60.77;99158.04;251391;1153;114696;-74
2021/03/18 02:30:15;;;;;;;15.47;9.80;;;;;;;4.37;61.59;99160.47;248572;1147;115286;-80
2021/03/18 02:35:26;;;;;;;18.15;10.18;;;;;;;4.39;61.27;99156.02;250131;1153;114883;-75
2021/03/18 02:40:33;;;;;;;16.30;10.57;;;;;;;4.38;60.97;99162.21;248320;1146;114566;-72
2021/03/18 02:45:49;;;;;;;16.30;11.00;;;;;;;4.36;61.09;99161.39;250848;1147;114580;-79
2021/03/18 02:50:53;;;;;;;12.87;10.23;;;;;;;4.33;61.33;99164.13;247074;1146;115013;-80
2021/03/18 02:55:58;;;;;;;18.33;11.40;;;;;;;4.27;61.44;99157.29;250379;1152;114287;-78
2021/03/18 03:01:04;;;;;;;15.38;11.43;;;;;;;4.25;61.56;99166.19;252092;1146;114693;-77
2021/03/18 03:06:18;;;;;;;17.93;11.53;;;;;;;4.23;61.73;99162.73;250723;1153;114815;-73
2021/03/18 03:11:23;;;;;;;15.30;11.58;;;;;;;4.18;61.83;99167.31;251387;1146;115189;-80
2021/03/18 03:16:26;;;;;;;;;;;;;;;4.15;61.40;99167.41;249257;1153;116077;-77
2021/03/18 03:21:30;;;;;;;15.65;12.05;;;;;;;4.11;61.78;99168.39;251397;1146;103066;-76
2021/03/18 03:26:33;;;;;;;18.60;13.33;;;;;;;4.09;62.11;99170.24;251032;1153;114899;-79
2021/03/18 03:31:36;;;;;;;17.53;13.40;;;;;;;4.08;61.85;99165.89;251106;1146;115020;-73
2021/03/18 03:36:38;;;;;;;19.33;13.63;;;;;;;4.05;61.98;99177.39;247778;1146;114919;-73
2021/03/18 03:41:47;;;;;;;21.30;14.25;;;;;;;4.02;61.78;99167.81;250811;1146;114574;-71
2021/03/18 03:46:50;;;;;;;21.30;13.30;;;;;;;3.99;62.11;99172.31;251296;1153;114920;-73
2021/03/18 03:52:10;;;;;;;19.97;13.57;;;;;;;4.01;61.90;99171.36;251193;1146;114212;-78
2021/03/18 03:57:28;;;;;;;17.07;12.40;;;;;;;4.11;62.60;99174.55;251253;1153;114531;-79
2021/03/18 04:02:32;;;;;;;23.10;13.53;;;;;;;4.16;62.11;99171.75;252030;1145;115059;-74
2021/03/18 04:07:36;;;;;;;;;;;;;;;4.20;62.46;99181.27;250886;1153;114752;-73
2021/03/18 04:12:45;;;;;;;15.98;10.98;;;;;;;4.20;62.15;99186.53;249873;1153;103069;-73
2021/03/18 04:17:51;;;;;;;16.17;11.37;;;;;;;4.18;61.98;99183.11;251682;1146;114668;-72
2021/03/18 04:22:56;;;;;;;14.10;10.25;;;;;;;4.12;62.12;99181.53;252332;1144;114339;-78
2021/03/18 04:27:59;;;;;;;;;;;;;;;4.10;62.20;99182.48;248864;1145;114771;-78
2021/03/18 04:33:02;;;;;;;14.73;9.43;;;;;;;3.99;62.00;99186.34;248081;1153;103311;-75
2021/03/18 04:38:05;;;;;;;13.85;9.10;;;;;;;3.92;62.26;99192.72;250523;1144;114580;-78
2021/03/18 04:43:08;;;;;;;15.15;9.40;;;;;;;3.82;61.73;99188.66;251125;1147;114554;-72
2021/03/18 04:48:12;;;;;;;17.47;10.80;;;;;;;3.75;61.94;99198.52;250775;1148;114438;-74
2021/03/18 04:53:17;;;;;;;14.53;10.18;;;;;;;3.76;62.40;99200.23;251265;1148;114607;-75
2021/03/18 04:58:22;;;;;;;15.07;10.53;;;;;;;3.80;61.99;99198.37;251450;1153;114394;-78
2021/03/18 05:03:25;;;;;;;16.05;10.20;;;;;;;3.82;61.92;99207.09;251361;1146;114654;-73
2021/03/18 05:08:31;;;;;;;16.05;10.05;;;;;;;3.84;62.75;99205.28;252068;1146;114509;-73
2021/03/18 05:13:35;;;;;;;15.93;10.40;;;;;;;3.84;62.19;99207.91;251558;1144;114469;-73
2021/03/18 05:18:37;;;;;;;13.75;9.58;;;;;;;3.84;61.89;99212.29;251809;1145;115165;-78
2021/03/18 05:23:41;;;;;;;16.40;9.68;;;;;;;3.83;62.05;99219.33;251774;1146;114589;-78
2021/03/18 05:28:43;;;;;;;15.63;9.73;;;;;;;3.82;61.93;99214.98;251997;1145;114347;-79
2021/03/18 05:33:46;;;;;;;15.23;9.57;;;;;;;3.84;61.91;99226.34;252044;1146;114706;-78
2021/03/18 05:38:48;;;;;;;18.40;9.15;;;;;;;3.83;62.06;99229.86;251707;1146;116237;-79
2021/03/18 05:43:51;;;;;;;12.30;8.25;;;;;;;3.82;61.93;99228.15;250291;1146;114719;-72
2021/03/18 05:48:53;;;;;;;14.73;8.85;;;;;;;3.81;61.87;99236.96;251952;1153;115019;-76
2021/03/18 05:53:57;;;;;;;12.10;7.27;;;;;;;3.79;61.76;99238.77;251984;1153;114775;-75
2021/03/18 05:59:00;;;;;;;13.30;7.65;;;;;;;3.76;61.76;99247.61;252158;1146;114496;-79
2021/03/18 06:04:03;;;;;;;14.80;7.90;;;;;;;3.77;61.73;99248.47;251916;1153;115115;-74
2021/03/18 06:09:07;;;;;;;13.60;7.30;;;;;;;3.78;61.68;99244.95;251701;1146;114702;-78
2021/03/18 06:14:09;;;;;;;13.23;7.73;;;;;;;3.74;61.68;99248.59;252030;1146;114633;-73
2021/03/18 06:19:12;;;;;;;14.68;7.73;;;;;;;3.75;61.61;99247.67;252124;1148;114366;-77
2021/03/18 06:24:15;;;;;;;13.48;7.75;;;;;;;3.77;61.39;99256.36;249579;1145;115320;-77
2021/03/18 06:29:34;;;;;;;11.95;7.80;;;;;;;3.78;61.51;99255.48;251612;1145;115390;-72
2021/03/18 06:35:03;;;;;;;11.55;7.70;;;;;;;3.83;61.19;99263.22;251883;1146;115095;-72
2021/03/18 06:40:06;;;;;;;12.60;8.20;;;;;;;3.83;61.24;99264.08;248686;1153;115211;-71
2021/03/18 06:45:13;;;;;;;14.78;8.68;;;;;;;3.88;60.82;99264.81;249839;1145;114454;-71
2021/03/18 06:50:21;;;;;;;12.00;7.20;;;;;;;3.91;60.78;99274.39;251191;1146;114487;-73
2021/03/18 06:55:25;;;;;;;15.90;6.80;;;;;;;3.91;60.98;99272.63;252018;1145;114404;-78
2021/03/18 07:00:36;;;;;;;16.65;6.28;;;;;;;3.92;60.38;99273.48;251095;1146;114464;-77
2021/03/18 07:05:42;;;;;;;11.50;5.70;;;;;;;3.93;60.38;99265.52;251687;1146;115016;-71
2021/03/18 07:10:44;;;;;;;12.43;6.10;;;;;;;3.96;60.22;99269.83;250331;1146;114870;-72
2021/03/18 07:15:49;;;;;;;13.35;6.15;;;;;;;4.00;60.18;99264.41;252005;1146;114418;-73
2021/03/18 07:21:13;;;;;;;11.08;6.05;;;;;;;4.09;60.38;99262.41;250880;1146;114646;-80
2021/03/18 07:26:23;;;;;;;16.70;6.08;;;;;;;4.20;60.24;99260.28;248900;1148;114992;-75
2021/03/18 07:31:26;;;;;;;10.40;6.00;;;;;;;4.31;59.65;99262.56;252005;1153;114498;-72
2021/03/18 07:36:29;;;;;;;12.00;5.63;;;;;;;4.45;60.31;99266.48;250726;1146;114754;-72
2021/03/18 07:41:33;;;;;;;12.18;5.68;;;;;;;4.57;59.89;99266.97;252038;1146;114712;-70
2021/03/18 07:46:37;;;;;;;;;;;;;;;4.68;59.50;99276.22;251773;1145;115077;-74
2021/03/18 07:51:42;;;;;;;8.73;5.13;;;;;;;4.71;59.26;99268.20;251019;1153;107117;-76
2021/03/18 07:56:54;;;;;;;10.70;5.47;;;;;;;4.75;58.76;99271.59;252135;1146;114807;-76
2021/03/18 08:02:17;;;;;;;8.65;5.40;;;;;;;4.83;58.87;99268.72;252064;1153;114581;-76
2021/03/18 08:07:38;;;;;;;8.30;4.80;;;;;;;4.91;58.66;99256.97;249395;1146;114697;-71
2021/03/18 08:12:50;;;;;;;8.50;5.35;;;;;;;5.07;58.45;99262.56;252147;1152;117724;-71
2021/03/18 08:17:55;;;;;;;9.85;4.85;;;;;;;5.17;57.44;99250.77;251090;1146;114135;-77
2021/03/18 08:22:57;;;;;;;8.57;5.13;;;;;;;5.27;57.44;99247.80;251907;1145;114424;-76
2021/03/18 08:28:00;;;;;;;8.93;3.77;;;;;;;5.31;57.36;99250.25;249207;1146;114468;-71
2021/03/18 08:33:35;;;;;;;6.38;4.13;;;;;;;5.34;57.10;99255.42;251466;1153;114679;-71
2021/03/18 08:38:41;;;;;;;6.60;3.80;;;;;;;5.36;56.35;99250.92;251575;1145;114502;-77
2021/03/18 08:44:11;;;;;;;10.25;3.78;;;;;;;5.37;56.72;99244.75;252065;1146;114135;-71
2021/03/18 08:49:41;;;;;;;8.03;4.17;;;;;;;5.39;56.69;99248.17;249512;1146;114502;-71
2021/03/18 08:54:49;;;;;;;7.33;3.60;;;;;;;5.47;56.05;99242.63;250928;1145;114481;-76
2021/03/18 08:59:59;;;;;;;5.17;3.10;;;;;;;5.56;55.83;99230.84;247591;1146;114972;-77
2021/03/18 09:05:13;;;;;;;8.35;3.68;;;;;;;5.69;56.13;99232.09;251702;1147;114208;-76
2021/03/18 09:10:24;;;;;;;7.78;3.23;;;;;;;5.82;56.55;99230.69;250719;1146;114714;-70
2021/03/18 09:15:29;;;;;;;6.50;3.30;;;;;;;5.94;56.20;99234.64;250534;1153;115424;-75
2021/03/18 09:20:35;;;;;;;8.28;2.48;;;;;;;6.05;55.55;99218.39;252018;1146;115005;-70
2021/03/18 09:25:37;;;;;;;4.15;2.30;;;;;;;6.20;56.04;99235.38;252049;1153;114469;-75
2021/03/18 09:30:48;;;;;;;4.00;2.28;;;;;;;6.28;54.86;99228.84;250537;1144;115370;-77
2021/03/18 09:35:53;;;;;;;5.88;2.60;;;;;;;6.43;54.90;99226.51;251908;1146;114106;-74
2021/03/18 09:40:59;;;;;;;10.87;3.43;;;;;;;6.46;54.75;99224.59;250812;1146;114694;-78
2021/03/18 09:46:04;;;;;;;7.13;3.33;;;;;;;6.53;54.55;99215.47;250858;1153;116388;-76
2021/03/18 09:51:06;;;;;;;4.90;2.70;;;;;;;6.58;54.37;99217.91;250608;1146;114680;-69
2021/03/18 09:56:11;;;;;;;6.85;3.30;;;;;;;6.65;54.60;99211.42;249481;1145;113974;-71
2021/03/18 10:01:18;;;;;;;4.85;3.08;;;;;;;6.73;54.39;99204.04;251849;1146;115392;-71
2021/03/18 10:06:32;;;;;;;6.45;3.55;;;;;;;6.95;54.84;99203.94;251171;1145;114709;-75
2021/03/18 10:11:48;;;;;;;5.55;3.23;;;;;;;6.99;53.78;99204.66;249861;1146;114192;-75
2021/03/18 10:16:51;;;;;;;2.50;1.60;;;;;;;6.89;53.28;99198.91;250302;1146;115894;-71
2021/03/18 10:21:54;;;;;;;4.00;1.90;;;;;;;6.92;52.88;99211.16;251608;1146;114502;-70
2021/03/18 10:27:14;;;;;;;7.30;1.90;;;;;;;6.94;52.77;99201.38;250565;1146;114525;-70
2021/03/18 10:32:19;;;;;;;8.03;2.68;;;;;;;7.29;53.51;99197.97;249878;1153;115844;-76
2021/03/18 10:37:36;;;;;;;5.40;3.55;;;;;;;7.23;52.58;99206.19;247275;1146;115195;-77
2021/03/18 10:42:39;;;;;;;5.60;3.45;;;;;;;7.02;52.45;99201.88;251184;1146;114604;-75
2021/03/18 10:47:43;;;;;;;5.25;3.65;;;;;;;6.91;52.97;99197.07;252101;1145;115833;-70
2021/03/18 10:53:15;;;;;;;8.08;3.93;;;;;;;7.10;52.91;99197.97;250213;1145;114653;-77
2021/03/18 10:58:32;;;;;;;5.60;3.40;;;;;;;7.40;52.62;99184.23;248977;1146;115228;-76
2021/03/18 11:03:39;;;;;;;8.95;3.35;;;;;;;7.63;52.05;99169.91;252089;1145;115195;-70
2021/03/18 11:08:44;;;;;;;4.93;3.15;;;;;;;7.92;51.51;99178.26;252089;1153;115226;-70
2021/03/18 11:13:47;;;;;;;9.75;3.95;;;;;;;8.00;51.29;99178.73;251994;1145;115551;-77
2021/03/18 11:18:56;;;;;;;11.65;4.08;;;;;;;8.23;51.25;99170.48;252014;1153;114243;-70
2021/03/18 11:24:08;;;;;;;10.95;5.00;;;;;;;8.18;50.42;99167.20;251374;1145;114995;-71
2021/03/18 11:29:15;;;;;;;7.13;4.75;;;;;;;8.05;49.98;99166.13;250612;1153;114291;-70
2021/03/18 11:34:20;;;;;;;7.85;4.78;;;;;;;8.08;50.31;99160.64;250419;1145;114232;-71
2021/03/18 11:40:26;;;;;;;7.93;5.10;;;;;;;8.11;50.50;99154.33;252242;1153;114148;-72
2021/03/18 11:45:29;;;;;;;;;;;;;;;8.05;49.66;99161.67;249758;1145;114718;-70
2021/03/18 11:50:33;;;;;;;8.50;4.70;;;;;;;7.88;49.90;99153.70;250252;1147;103170;-70
2021/03/18 11:55:38;;;;;;;7.63;4.47;;;;;;;7.75;49.02;99149.94;249244;1153;114466;-69
2021/03/18 12:00:40;;;;;;;6.10;4.30;;;;;;;7.55;49.13;99146.45;251564;1152;114682;-75
2021/03/18 12:05:43;;;;;;;6.50;4.55;;;;;;;7.89;49.93;99130.70;251352;1146;114545;-70
2021/03/18 12:10:47;;;;;;;10.53;5.23;;;;;;;7.81;48.99;99142.55;251967;1153;114867;-71
2021/03/18 12:15:49;;;;;;;12.55;6.45;;;;;;;7.77;49.35;99125.06;251993;1145;114601;-70
2021/03/18 12:20:52;;;;;;;8.90;6.47;;;;;;;8.13;50.54;99126.82;251567;1147;114621;-70
2021/03/18 12:25:55;;;;;;;10.70;6.97;;;;;;;8.70;50.57;99113.31;251629;1145;114534;-70
2021/03/18 12:30:57;;;;;;;11.00;7.53;;;;;;;9.12;50.03;99107.47;250365;1145;114545;-76
2021/03/18 12:36:00;;;;;;;8.75;6.00;;;;;;;9.59;49.49;99105.77;251806;1146;114434;-70
2021/03/18 12:41:02;;;;;;;12.00;6.50;;;;;;;9.76;48.89;99112.77;251934;1153;114425;-77
2021/03/18 12:46:05;;;;;;;12.30;5.83;;;;;;;10.01;48.59;99106.88;251892;1147;114815;-71
2021/03/18 12:51:07;;;;;;;8.93;5.50;;;;;;;10.24;47.91;99094.88;251957;1153;114990;-75
2021/03/18 12:56:09;;;;;;;9.67;5.63;;;;;;;10.27;46.65;99084.95;251972;1146;114881;-70
2021/03/18 13:01:12;;;;;;;9.60;6.20;;;;;;;10.29;46.94;99092.83;252019;1145;114814;-70
2021/03/18 13:12:54;;;;;;;9.90;5.50;;;;;;;10.27;46.46;99076.97;251949;1146;115035;-76
2021/03/18 13:17:56;;;;;;;7.50;5.03;;;;;;;10.55;45.84;99076.14;251957;1148;114748;-71
2021/03/18 13:22:59;;;;;;;8.40;5.50;;;;;;;10.84;45.57;99073.50;251976;1146;114836;-71
2021/03/18 13:28:01;;;;;;;7.83;5.43;;;;;;;11.02;45.32;99069.67;251102;1146;115090;-70
2021/03/18 13:33:06;;;;;;;12.25;4.75;;;;;;;11.20;44.89;99069.44;249467;1153;115076;-75
2021/03/18 13:38:12;;;;;;;8.55;4.90;;;;;;;11.32;43.88;99060.67;251972;1145;115097;-71
2021/03/18 13:43:14;;;;;;;7.20;4.75;;;;;;;11.49;44.29;99062.24;252015;1146;114816;-71
2021/03/18 13:48:21;;;;;;;6.17;4.77;;;;;;;10.99;42.98;99067.20;251987;1148;114705;-71
2021/03/18 13:53:25;;;;;;;8.88;5.15;;;;;;;10.46;42.80;99062.54;252153;1153;114889;-71
2021/03/18 13:58:27;;;;;;;6.47;4.70;;;;;;;10.14;43.21;99060.00;251038;1145;115048;-77
2021/03/18 14:03:30;;;;;;;8.50;4.53;;;;;;;9.76;42.94;99055.16;252092;1153;114666;-71
2021/03/18 14:08:33;;;;;;;7.47;4.30;;;;;;;9.42;42.99;99051.78;252023;1147;114584;-76
2021/03/18 14:13:36;;;;;;;6.75;4.33;;;;;;;9.08;42.55;99042.22;251953;1153;114942;-77
2021/03/18 14:18:38;;;;;;;7.05;4.40;;;;;;;8.76;42.68;99036.02;252005;1146;114479;-71
2021/03/18 14:23:41;;;;;;;12.55;5.50;;;;;;;8.51;42.99;99040.00;251122;1146;114523;-76
2021/03/18 14:28:44;;;;;;;7.20;4.77;;;;;;;8.27;43.30;99043.93;250365;1146;114717;-76
2021/03/18 14:33:46;;;;;;;10.27;5.10;;;;;;;8.04;43.51;99045.13;251405;1144;115053;-70
2021/03/18 14:38:50;;;;;;;8.40;5.08;;;;;;;7.85;43.04;99029.33;252011;1146;115392;-70
2021/03/18 14:43:52;;;;;;;6.83;4.50;;;;;;;7.72;43.16;99029.09;251934;1153;114444;-71
2021/03/18 14:48:55;;;;;;;5.05;3.90;;;;;;;7.59;43.60;99025.34;248966;1153;114322;-75
2021/03/18 14:53:59;;;;;;;4.38;3.60;;;;;;;7.42;43.36;99023.52;251181;1146;114597;-79
2021/03/18 14:59:01;;;;;;;5.90;3.90;;;;;;;7.28;42.82;99013.62;252005;1146;114580;-77
2021/03/18 15:04:04;;;;;;;6.30;4.25;;;;;;;7.17;42.70;99015.94;251657;1153;114883;-77
2021/03/18 15:09:07;;;;;;;7.10;3.97;;;;;;;7.09;42.74;99012.79;250071;1145;115556;-72
2021/03/18 15:14:09;;;;;;;7.63;3.97;;;;;;;7.06;43.12;99008.49;252058;1153;114367;-77
2021/03/18 15:19:12;;;;;;;9.33;4.85;;;;;;;7.00;43.56;99014.11;250839;1145;114274;-77
2021/03/18 15:24:14;;;;;;;9.48;4.35;;;;;;;6.94;43.05;99008.25;249688;1146;114586;-77
2021/03/18 15:29:16;;;;;;;6.10;4.27;;;;;;;6.81;43.19;99016.75;250620;1145;115215;-77
2021/03/18 15:34:19;;;;;;;6.97;4.80;;;;;;;6.75;43.13;99021.47;251375;1146;114451;-77
2021/03/18 15:39:21;;;;;;;9.50;5.78;;;;;;;6.72;43.61;99008.39;251845;1146;115089;-78
2021/03/18 15:44:24;;;;;;;7.70;4.73;;;;;;;6.68;42.92;99009.47;251324;1146;114306;-72
2021/03/18 15:49:26;;;;;;;8.77;4.60;;;;;;;6.59;43.58;98998.41;251331;1153;115068;-76
2021/03/18 15:54:29;;;;;;;7.10;3.50;;;;;;;6.57;43.02;99002.89;251593;1146;114532;-77
2021/03/18 15:59:31;;;;;;;6.07;3.67;;;;;;;6.54;43.57;99010.95;251485;1146;114583;-70
2021/03/18 16:04:34;;;;;;;8.70;3.60;;;;;;;6.48;43.17;99005.09;252031;1146;114617;-70
2021/03/18 16:09:36;;;;;;;8.97;4.17;;;;;;;6.42;42.68;99005.38;251957;1146;114516;-71
2021/03/18 16:14:39;;;;;;;9.30;3.45;;;;;;;6.40;43.02;99006.30;252010;1146;114218;-76
2021/03/18 16:19:41;;;;;;;7.75;4.38;;;;;;;6.39;42.51;99001.11;252014;1146;114827;-71
2021/03/18 16:24:44;;;;;;;6.90;4.50;;;;;;;6.31;43.01;99003.22;251913;1145;114264;-77
2021/03/18 16:29:47;;;;;;;9.53;4.23;;;;;;;6.26;42.78;99003.44;251049;1146;114439;-77
2021/03/18 16:34:52;;;;;;;10.83;4.90;;;;;;;6.16;43.57;99008.27;250010;1146;115091;-75
2021/03/18 16:39:54;;;;;;;11.23;4.90;;;;;;;6.08;43.93;99020.98;251823;1146;114546;-71
2021/03/18 16:44:57;;;;;;;11.60;5.70;;;;;;;6.02;43.78;99009.82;251968;1146;114591;-76
2021/03/18 16:49:59;;;;;;;15.30;6.98;;;;;;;5.95;44.32;99008.38;251397;1146;114662;-75
2021/03/18 16:55:11;;;;;;;11.93;7.73;;;;;;;5.85;44.13;99021.94;249088;1153;114629;-75
2021/03/18 17:00:20;;;;;;;14.08;7.43;;;;;;;5.74;44.21;99018.91;251568;1146;115151;-70
2021/03/18 17:05:22;;;;;;;12.88;7.35;;;;;;;5.62;44.72;99025.55;250645;1152;114611;-75
2021/03/18 17:10:28;;;;;;;13.03;7.75;;;;;;;5.51;44.75;99027.79;252014;1146;114900;-76
2021/03/18 17:15:31;;;;;;;13.37;7.90;;;;;;;5.40;44.95;99030.88;251026;1146;114616;-70
2021/03/18 17:20:33;;;;;;;13.43;9.07;;;;;;;5.32;45.39;99024.19;251995;1146;114777;-70
2021/03/18 17:25:38;;;;;;;15.15;8.95;;;;;;;5.24;45.23;99026.29;251550;1153;114531;-76
2021/03/18 17:30:46;;;;;;;14.80;9.68;;;;;;;5.16;45.56;99018.66;251654;1145;114760;-80
2021/03/18 17:35:49;;;;;;;18.65;11.33;;;;;;;5.12;46.08;99020.56;251908;1146;115512;-77
2021/03/18 17:40:51;;;;;;;25.48;11.83;;;;;;;5.07;46.21;99014.63;249933;1146;115108;-75
2021/03/18 17:45:56;;;;;;;18.10;10.13;;;;;;;5.01;45.85;99014.02;250995;1153;114620;-76
2021/03/18 17:51:01;;;;;;;22.23;12.90;;;;;;;4.90;46.08;99004.75;252028;1145;114942;-75
2021/03/18 17:56:03;;;;;;;14.60;9.80;;;;;;;4.84;46.25;99012.90;251063;1146;115088;-75
2021/03/18 18:01:06;;;;;;;22.83;10.43;;;;;;;4.79;46.65;99009.60;250120;1146;114700;-69
2021/03/18 18:06:09;;;;;;;16.60;10.18;;;;;;;4.72;46.73;99008.09;251709;1146;115083;-74
2021/03/18 18:11:12;;;;;;;19.97;9.87;;;;;;;4.63;47.04;99009.32;248084;1146;115464;-74
2021/03/18 18:16:15;;;;;;;24.80;12.20;;;;;;;4.57;47.33;99008.70;249663;1148;114280;-69
2021/03/18 18:21:17;;;;;;;32.83;17.40;;;;;;;4.50;47.44;99008.06;251205;1146;115566;-70
2021/03/18 18:26:20;;;;;;;27.77;13.40;;;;;;;4.44;47.52;99003.88;251368;1146;116026;-70
2021/03/18 18:31:25;;;;;;;23.63;13.73;;;;;;;4.40;47.38;99004.06;252053;1146;115108;-77
2021/03/18 18:36:27;;;;;;;29.83;14.40;;;;;;;4.33;47.85;99002.58;252024;1146;114853;-75
2021/03/18 18:41:29;;;;;;;31.20;16.00;;;;;;;4.26;47.86;99001.95;248834;1146;115219;-74
2021/03/18 18:46:32;;;;;;;33.03;17.83;;;;;;;4.20;48.08;99010.06;251059;1146;115007;-76
2021/03/18 18:51:35;;;;;;;33.25;17.10;;;;;;;4.11;48.12;99016.55;251969;1146;114798;-74
2021/03/18 18:56:38;;;;;;;37.50;18.33;;;;;;;4.02;48.39;99016.87;249248;1146;114881;-74
2021/03/18 19:01:40;;;;;;;36.70;18.95;;;;;;;3.92;48.22;99015.48;251981;1145;114834;-74
2021/03/18 19:06:44;;;;;;;40.15;17.73;;;;;;;3.85;48.75;99035.03;252011;1145;114911;-70
2021/03/18 19:11:46;;;;;;;41.20;20.65;;;;;;;3.75;48.81;99026.59;252170;1146;114871;-75
2021/03/18 19:16:48;;;;;;;40.67;20.30;;;;;;;3.68;49.06;99023.31;251979;1146;115164;-74
2021/03/18 19:21:51;;;;;;;39.90;20.40;;;;;;;3.64;49.17;99016.44;251506;1146;114989;-70
2021/03/18 19:26:54;;;;;;;45.38;21.93;;;;;;;3.59;49.75;99018.35;251975;1153;114819;-73
2021/03/18 19:31:56;;;;;;;41.63;20.27;;;;;;;3.55;49.71;99016.74;248896;1146;114951;-68
2021/03/18 19:36:59;;;;;;;40.25;21.60;;;;;;;3.50;49.60;99016.91;250112;1153;115151;-69
2021/03/18 19:42:02;;;;;;;44.40;21.65;;;;;;;3.45;49.93;99013.56;251630;1145;114695;-76
2021/03/18 19:47:05;;;;;;;44.70;23.75;;;;;;;3.43;50.05;99015.41;249611;1145;114792;-76
2021/03/18 19:52:07;;;;;;;48.85;26.65;;;;;;;3.38;50.29;99009.42;249508;1146;114677;-71
2021/03/18 19:57:12;;;;;;;55.63;27.13;;;;;;;3.31;50.37;99016.66;249956;1146;115045;-79
2021/03/18 20:02:14;;;;;;;;;;;;;;;3.25;50.56;99010.73;251212;1146;114764;-73
2021/03/18 20:07:17;;;;;;;52.15;26.68;;;;;;;3.18;50.71;99012.70;252092;1146;101868;-73
2021/03/18 20:12:20;;;;;;;54.10;25.08;;;;;;;3.20;50.94;99016.16;251762;1145;115191;-78
2021/03/18 20:17:22;;;;;;;53.48;25.55;;;;;;;3.18;51.08;99024.99;251737;1145;115762;-72
2021/03/18 20:22:25;;;;;;;42.28;22.73;;;;;;;3.15;51.13;99022.46;251567;1147;116083;-71
2021/03/18 20:27:27;;;;;;;48.07;23.93;;;;;;;3.13;51.40;99019.04;251804;1153;115864;-70
2021/03/18 20:32:29;;;;;;;47.13;24.60;;;;;;;3.12;51.48;99014.67;250990;1146;115107;-71
2021/03/18 20:37:32;;;;;;;44.58;23.68;;;;;;;3.12;51.48;99012.04;251707;1153;114878;-74
2021/03/18 20:42:36;;;;;;;50.00;24.53;;;;;;;3.12;51.60;99012.89;251615;1146;114872;-71
2021/03/18 20:47:38;;;;;;;44.37;23.57;;;;;;;3.12;51.65;99012.04;249877;1153;114912;-75
2021/03/18 20:52:42;;;;;;;47.77;23.53;;;;;;;3.04;51.63;99007.03;251603;1146;114768;-75
2021/03/18 20:57:44;;;;;;;46.30;23.17;;;;;;;2.94;51.91;99009.09;250439;1153;115298;-70
2021/03/18 21:02:47;;;;;;;39.30;21.85;;;;;;;2.87;51.81;99004.94;251978;1153;116326;-70
2021/03/18 21:07:50;;;;;;;35.63;18.50;;;;;;;2.87;52.36;99004.94;252031;1147;115513;-70
2021/03/18 21:12:52;;;;;;;37.20;17.95;;;;;;;2.90;52.35;99006.63;249554;1146;115252;-76
2021/03/18 21:17:55;;;;;;;38.00;20.53;;;;;;;2.87;52.13;99010.20;252117;1152;115066;-70
2021/03/18 21:22:58;;;;;;;35.80;18.30;;;;;;;2.83;52.61;99011.20;248136;1146;115007;-76
2021/03/18 21:28:00;;;;;;;43.05;22.35;;;;;;;2.81;52.68;99007.75;251060;1153;115716;-72
2021/03/18 21:33:03;;;;;;;52.43;27.13;;;;;;;2.80;52.42;98999.02;251725;1153;115727;-69
2021/03/18 21:38:06;;;;;;;68.73;36.08;;;;;;;2.75;52.42;99000.94;251953;1147;115496;-69
2021/03/18 21:43:09;;;;;;;71.38;33.58;;;;;;;2.65;52.31;99002.13;251969;1153;115053;-74
2021/03/18 21:48:14;;;;;;;75.15;37.70;;;;;;;2.56;52.63;99005.88;251795;1145;114754;-69
2021/03/18 21:53:17;;;;;;;76.30;35.63;;;;;;;2.50;52.88;98997.33;249701;1146;115249;-72
2021/03/18 21:58:19;;;;;;;71.35;35.33;;;;;;;2.44;52.90;98994.88;252105;1146;114783;-75
2021/03/18 22:03:22;;;;;;;65.00;33.93;;;;;;;2.41;53.43;98993.20;251962;1153;114808;-71
2021/03/18 22:08:25;;;;;;;71.73;35.37;;;;;;;2.41;53.18;98989.71;251870;1153;114906;-70
2021/03/18 22:13:28;;;;;;;73.45;35.23;;;;;;;2.45;53.66;98997.48;251956;1146;114682;-76
2021/03/18 22:18:31;;;;;;;67.08;33.60;;;;;;;2.49;53.72;98996.47;249554;1153;115205;-69
2021/03/18 22:23:33;;;;;;;80.58;39.30;;;;;;;2.52;53.49;98980.63;252014;1153;114643;-69
2021/03/18 22:28:36;;;;;;;70.60;35.60;;;;;;;2.59;53.69;98992.66;251981;1147;114752;-69
2021/03/18 22:33:38;;;;;;;83.38;36.15;;;;;;;2.64;53.38;98987.25;252042;1146;114742;-75
2021/03/18 22:38:41;;;;;;;74.20;35.17;;;;;;;2.67;53.61;98988.94;251452;1146;114773;-72
2021/03/18 22:43:43;;;;;;;72.70;35.20;;;;;;;2.62;53.60;98990.86;251968;1145;114778;-77
2021/03/18 22:48:45;;;;;;;65.13;33.53;;;;;;;2.58;53.79;98985.70;252007;1146;114806;-72
2021/03/18 22:53:48;;;;;;;68.83;33.53;;;;;;;2.54;53.83;98983.19;251177;1153;114689;-78
2021/03/18 22:58:50;;;;;;;78.83;38.00;;;;;;;2.47;53.81;98985.14;251802;1148;115071;-70
2021/03/18 23:03:53;;;;;;;78.17;37.73;;;;;;;2.44;53.97;98984.38;251905;1153;114678;-71
2021/03/18 23:08:56;;;;;;;79.30;39.47;;;;;;;2.39;53.85;98981.04;251964;1146;114904;-76
2021/03/18 23:13:58;;;;;;;94.63;43.30;;;;;;;2.28;53.62;98987.47;252048;1153;114881;-70
2021/03/18 23:19:25;;;;;;;91.20;46.30;;;;;;;2.25;54.27;98986.70;251974;1145;114606;-71
2021/03/18 23:24:27;;;;;;;98.67;46.27;;;;;;;2.22;53.95;98987.64;251958;1153;115392;-79
2021/03/18 23:29:29;;;;;;;95.38;46.50;;;;;;;2.18;54.33;98988.64;251821;1146;114832;-71
2021/03/18 23:34:33;;;;;;;89.85;43.55;;;;;;;2.12;54.31;98984.42;252013;1146;114773;-75